sensor_id;sensor_type;location;lat;lon;timestamp;P1;durP1;ratioP1;P2;durP2;ratioP2
70313;SDS011;71040;47.526;18.986;2023-12-29T00:03:41;7.37;;;5.70;;
70313;SDS011;71040;47.526;18.986;2023-12-29T00:08:43;7.60;;;5.30;;
70313;SDS011;71040;47.526;18.986;2023-12-29T00:13:44;7.23;;;4.90;;
70313;SDS011;71040;47.526;18.986;2023-12-29T00:18:44;7.83;;;5.23;;
70313;SDS011;71040;47.526;18.986;2023-12-29T00:23:47;7.60;;;5.07;;
70313;SDS011;71040;47.526;18.986;2023-12-29T00:28:48;7.47;;;5.00;;
70313;SDS011;71040;47.526;18.986;2023-12-29T00:33:51;7.30;;;4.87;;
70313;SDS011;71040;47.526;18.986;2023-12-29T00:38:52;6.78;;;4.90;;
70313;SDS011;71040;47.526;18.986;2023-12-29T00:43:53;6.60;;;4.40;;
70313;SDS011;71040;47.526;18.986;2023-12-29T00:48:53;6.40;;;4.60;;
70313;SDS011;71040;47.526;18.986;2023-12-29T00:53:53;6.10;;;4.63;;
70313;SDS011;71040;47.526;18.986;2023-12-29T00:58:54;6.27;;;4.03;;
70313;SDS011;71040;47.526;18.986;2023-12-29T01:03:54;6.10;;;4.80;;
70313;SDS011;71040;47.526;18.986;2023-12-29T01:08:55;6.90;;;4.20;;
70313;SDS011;71040;47.526;18.986;2023-12-29T01:13:55;4.60;;;3.87;;
70313;SDS011;71040;47.526;18.986;2023-12-29T01:19:01;7.13;;;4.72;;
70313;SDS011;71040;47.526;18.986;2023-12-29T01:24:01;6.47;;;4.60;;
70313;SDS011;71040;47.526;18.986;2023-12-29T01:29:04;5.90;;;4.03;;
70313;SDS011;71040;47.526;18.986;2023-12-29T01:34:05;4.88;;;3.65;;
70313;SDS011;71040;47.526;18.986;2023-12-29T01:39:05;5.60;;;3.93;;
70313;SDS011;71040;47.526;18.986;2023-12-29T01:49:27;6.10;;;4.32;;
70313;SDS011;71040;47.526;18.986;2023-12-29T01:54:29;6.15;;;4.00;;
70313;SDS011;71040;47.526;18.986;2023-12-29T01:59:33;4.82;;;3.72;;
70313;SDS011;71040;47.526;18.986;2023-12-29T02:04:35;5.47;;;3.90;;
70313;SDS011;71040;47.526;18.986;2023-12-29T02:09:37;6.45;;;4.40;;
70313;SDS011;71040;47.526;18.986;2023-12-29T02:14:40;6.25;;;3.97;;
70313;SDS011;71040;47.526;18.986;2023-12-29T02:19:41;5.83;;;4.60;;
70313;SDS011;71040;47.526;18.986;2023-12-29T02:24:50;5.32;;;4.20;;
70313;SDS011;71040;47.526;18.986;2023-12-29T02:35:09;6.35;;;3.85;;
70313;SDS011;71040;47.526;18.986;2023-12-29T02:40:14;5.83;;;3.77;;
70313;SDS011;71040;47.526;18.986;2023-12-29T02:45:17;6.47;;;3.92;;
70313;SDS011;71040;47.526;18.986;2023-12-29T02:50:18;5.45;;;3.22;;
70313;SDS011;71040;47.526;18.986;2023-12-29T02:55:19;5.50;;;4.05;;
70313;SDS011;71040;47.526;18.986;2023-12-29T03:00:19;7.13;;;3.45;;
70313;SDS011;71040;47.526;18.986;2023-12-29T03:05:22;6.13;;;3.95;;
70313;SDS011;71040;47.526;18.986;2023-12-29T03:10:22;5.60;;;4.07;;
70313;SDS011;71040;47.526;18.986;2023-12-29T03:15:23;4.95;;;3.90;;
70313;SDS011;71040;47.526;18.986;2023-12-29T03:20:26;6.50;;;4.22;;
70313;SDS011;71040;47.526;18.986;2023-12-29T03:25:29;6.87;;;4.60;;
70313;SDS011;71040;47.526;18.986;2023-12-29T03:30:32;4.55;;;3.80;;
70313;SDS011;71040;47.526;18.986;2023-12-29T03:35:32;6.60;;;4.05;;
70313;SDS011;71040;47.526;18.986;2023-12-29T03:40:35;5.93;;;4.28;;
70313;SDS011;71040;47.526;18.986;2023-12-29T03:45:37;5.43;;;3.85;;
70313;SDS011;71040;47.526;18.986;2023-12-29T03:50:38;5.77;;;4.10;;
70313;SDS011;71040;47.526;18.986;2023-12-29T03:55:38;5.33;;;3.50;;
70313;SDS011;71040;47.526;18.986;2023-12-29T04:00:45;4.90;;;3.77;;
70313;SDS011;71040;47.526;18.986;2023-12-29T04:05:47;5.07;;;3.53;;
70313;SDS011;71040;47.526;18.986;2023-12-29T04:10:57;5.53;;;3.88;;
70313;SDS011;71040;47.526;18.986;2023-12-29T04:15:57;5.37;;;3.43;;
70313;SDS011;71040;47.526;18.986;2023-12-29T04:21:02;5.45;;;3.63;;
70313;SDS011;71040;47.526;18.986;2023-12-29T04:26:05;5.47;;;3.63;;
70313;SDS011;71040;47.526;18.986;2023-12-29T04:31:05;6.00;;;3.87;;
70313;SDS011;71040;47.526;18.986;2023-12-29T04:36:06;6.13;;;4.03;;
70313;SDS011;71040;47.526;18.986;2023-12-29T04:41:06;6.20;;;4.17;;
70313;SDS011;71040;47.526;18.986;2023-12-29T04:46:07;7.30;;;4.68;;
70313;SDS011;71040;47.526;18.986;2023-12-29T04:51:07;6.97;;;4.70;;
70313;SDS011;71040;47.526;18.986;2023-12-29T04:56:08;6.23;;;4.60;;
70313;SDS011;71040;47.526;18.986;2023-12-29T05:01:08;7.78;;;4.88;;
70313;SDS011;71040;47.526;18.986;2023-12-29T05:06:09;5.88;;;4.88;;
70313;SDS011;71040;47.526;18.986;2023-12-29T05:11:12;8.07;;;5.50;;
70313;SDS011;71040;47.526;18.986;2023-12-29T05:16:13;6.53;;;4.57;;
70313;SDS011;71040;47.526;18.986;2023-12-29T05:21:16;7.28;;;5.13;;
70313;SDS011;71040;47.526;18.986;2023-12-29T05:26:21;6.30;;;4.07;;
70313;SDS011;71040;47.526;18.986;2023-12-29T05:31:24;6.80;;;5.00;;
70313;SDS011;71040;47.526;18.986;2023-12-29T05:36:24;6.18;;;4.65;;
70313;SDS011;71040;47.526;18.986;2023-12-29T05:41:25;5.83;;;4.50;;
70313;SDS011;71040;47.526;18.986;2023-12-29T05:46:25;7.03;;;4.47;;
70313;SDS011;71040;47.526;18.986;2023-12-29T05:51:26;5.90;;;4.10;;
70313;SDS011;71040;47.526;18.986;2023-12-29T05:56:26;6.77;;;4.47;;
70313;SDS011;71040;47.526;18.986;2023-12-29T06:01:26;5.60;;;4.33;;
70313;SDS011;71040;47.526;18.986;2023-12-29T06:06:29;6.25;;;4.30;;
70313;SDS011;71040;47.526;18.986;2023-12-29T06:11:29;4.93;;;3.30;;
70313;SDS011;71040;47.526;18.986;2023-12-29T06:16:32;5.37;;;3.80;;
70313;SDS011;71040;47.526;18.986;2023-12-29T06:21:33;8.48;;;4.28;;
70313;SDS011;71040;47.526;18.986;2023-12-29T06:26:33;5.60;;;3.87;;
70313;SDS011;71040;47.526;18.986;2023-12-29T06:31:33;4.77;;;3.60;;
70313;SDS011;71040;47.526;18.986;2023-12-29T06:36:34;5.60;;;3.87;;
70313;SDS011;71040;47.526;18.986;2023-12-29T06:41:34;5.43;;;3.75;;
70313;SDS011;71040;47.526;18.986;2023-12-29T06:46:37;4.88;;;3.70;;
70313;SDS011;71040;47.526;18.986;2023-12-29T06:51:38;5.90;;;4.53;;
70313;SDS011;71040;47.526;18.986;2023-12-29T06:56:41;6.22;;;4.18;;
70313;SDS011;71040;47.526;18.986;2023-12-29T07:01:41;6.43;;;4.43;;
70313;SDS011;71040;47.526;18.986;2023-12-29T07:06:42;7.88;;;4.72;;
70313;SDS011;71040;47.526;18.986;2023-12-29T07:11:46;8.00;;;5.22;;
70313;SDS011;71040;47.526;18.986;2023-12-29T07:16:50;7.03;;;5.27;;
70313;SDS011;71040;47.526;18.986;2023-12-29T07:21:50;9.20;;;5.67;;
70313;SDS011;71040;47.526;18.986;2023-12-29T07:26:51;8.70;;;6.03;;
70313;SDS011;71040;47.526;18.986;2023-12-29T07:31:51;10.00;;;5.83;;
70313;SDS011;71040;47.526;18.986;2023-12-29T07:36:52;9.20;;;6.32;;
70313;SDS011;71040;47.526;18.986;2023-12-29T07:41:53;7.32;;;5.70;;
70313;SDS011;71040;47.526;18.986;2023-12-29T07:46:56;9.57;;;6.07;;
70313;SDS011;71040;47.526;18.986;2023-12-29T07:51:59;9.23;;;6.18;;
70313;SDS011;71040;47.526;18.986;2023-12-29T07:57:00;8.97;;;6.20;;
70313;SDS011;71040;47.526;18.986;2023-12-29T08:02:04;7.72;;;5.75;;
70313;SDS011;71040;47.526;18.986;2023-12-29T08:07:05;8.90;;;6.22;;
70313;SDS011;71040;47.526;18.986;2023-12-29T08:12:09;8.30;;;5.93;;
70313;SDS011;71040;47.526;18.986;2023-12-29T08:17:13;8.30;;;6.30;;
70313;SDS011;71040;47.526;18.986;2023-12-29T08:22:16;10.35;;;5.88;;
70313;SDS011;71040;47.526;18.986;2023-12-29T08:27:23;9.13;;;5.93;;
70313;SDS011;71040;47.526;18.986;2023-12-29T08:32:25;8.68;;;6.35;;
70313;SDS011;71040;47.526;18.986;2023-12-29T08:37:26;10.00;;;6.47;;
70313;SDS011;71040;47.526;18.986;2023-12-29T08:42:28;8.25;;;5.63;;
70313;SDS011;71040;47.526;18.986;2023-12-29T08:47:29;9.63;;;5.97;;
70313;SDS011;71040;47.526;18.986;2023-12-29T08:52:32;8.98;;;6.00;;
70313;SDS011;71040;47.526;18.986;2023-12-29T08:57:34;7.35;;;5.63;;
70313;SDS011;71040;47.526;18.986;2023-12-29T09:02:37;8.32;;;5.65;;
70313;SDS011;71040;47.526;18.986;2023-12-29T09:07:41;8.85;;;6.50;;
70313;SDS011;71040;47.526;18.986;2023-12-29T09:12:41;8.05;;;5.60;;
70313;SDS011;71040;47.526;18.986;2023-12-29T09:17:42;9.07;;;6.53;;
70313;SDS011;71040;47.526;18.986;2023-12-29T09:22:42;10.20;;;6.37;;
70313;SDS011;71040;47.526;18.986;2023-12-29T09:27:42;9.17;;;6.53;;
70313;SDS011;71040;47.526;18.986;2023-12-29T09:32:44;12.43;;;6.47;;
70313;SDS011;71040;47.526;18.986;2023-12-29T09:37:44;9.83;;;6.53;;
70313;SDS011;71040;47.526;18.986;2023-12-29T09:42:45;9.88;;;6.72;;
70313;SDS011;71040;47.526;18.986;2023-12-29T09:47:46;9.40;;;7.32;;
70313;SDS011;71040;47.526;18.986;2023-12-29T09:52:47;10.73;;;7.65;;
70313;SDS011;71040;47.526;18.986;2023-12-29T09:57:51;9.50;;;7.28;;
70313;SDS011;71040;47.526;18.986;2023-12-29T10:02:52;11.02;;;7.65;;
70313;SDS011;71040;47.526;18.986;2023-12-29T10:07:58;11.35;;;7.40;;
70313;SDS011;71040;47.526;18.986;2023-12-29T10:13:03;9.10;;;7.13;;
70313;SDS011;71040;47.526;18.986;2023-12-29T10:18:18;10.77;;;8.05;;
70313;SDS011;71040;47.526;18.986;2023-12-29T10:23:22;10.88;;;8.00;;
70313;SDS011;71040;47.526;18.986;2023-12-29T10:28:56;10.82;;;8.25;;
70313;SDS011;71040;47.526;18.986;2023-12-29T10:39:29;11.10;;;8.10;;
70313;SDS011;71040;47.526;18.986;2023-12-29T10:44:29;12.48;;;8.48;;
70313;SDS011;71040;47.526;18.986;2023-12-29T10:49:29;9.57;;;7.83;;
70313;SDS011;71040;47.526;18.986;2023-12-29T10:54:30;11.50;;;8.13;;
70313;SDS011;71040;47.526;18.986;2023-12-29T10:59:30;12.63;;;8.17;;
70313;SDS011;71040;47.526;18.986;2023-12-29T11:04:30;9.73;;;8.10;;
70313;SDS011;71040;47.526;18.986;2023-12-29T11:09:33;12.45;;;8.80;;
70313;SDS011;71040;47.526;18.986;2023-12-29T11:14:34;10.57;;;8.18;;
70313;SDS011;71040;47.526;18.986;2023-12-29T11:19:34;11.88;;;8.73;;
70313;SDS011;71040;47.526;18.986;2023-12-29T11:24:36;11.27;;;7.68;;
70313;SDS011;71040;47.526;18.986;2023-12-29T11:29:39;11.25;;;8.85;;
70313;SDS011;71040;47.526;18.986;2023-12-29T11:34:46;11.45;;;8.57;;
70313;SDS011;71040;47.526;18.986;2023-12-29T11:39:58;12.48;;;9.63;;
70313;SDS011;71040;47.526;18.986;2023-12-29T11:55:37;14.02;;;9.88;;
70313;SDS011;71040;47.526;18.986;2023-12-29T12:00:45;13.48;;;9.00;;
70313;SDS011;71040;47.526;18.986;2023-12-29T12:05:47;18.00;;;12.80;;
70313;SDS011;71040;47.526;18.986;2023-12-29T12:10:48;19.00;;;14.98;;
70313;SDS011;71040;47.526;18.986;2023-12-29T12:15:52;19.90;;;14.85;;
70313;SDS011;71040;47.526;18.986;2023-12-29T12:20:53;17.80;;;13.60;;
70313;SDS011;71040;47.526;18.986;2023-12-29T12:25:57;18.27;;;14.47;;
70313;SDS011;71040;47.526;18.986;2023-12-29T12:31:05;18.63;;;13.77;;
70313;SDS011;71040;47.526;18.986;2023-12-29T12:36:08;18.52;;;14.02;;
70313;SDS011;71040;47.526;18.986;2023-12-29T12:41:11;18.20;;;13.00;;
70313;SDS011;71040;47.526;18.986;2023-12-29T12:46:12;17.50;;;13.75;;
70313;SDS011;71040;47.526;18.986;2023-12-29T12:51:14;15.65;;;12.52;;
70313;SDS011;71040;47.526;18.986;2023-12-29T12:56:14;16.80;;;13.10;;
70313;SDS011;71040;47.526;18.986;2023-12-29T13:01:16;18.98;;;13.43;;
70313;SDS011;71040;47.526;18.986;2023-12-29T13:06:16;18.10;;;13.63;;
70313;SDS011;71040;47.526;18.986;2023-12-29T13:11:21;16.42;;;12.50;;
70313;SDS011;71040;47.526;18.986;2023-12-29T13:16:37;17.15;;;12.98;;
70313;SDS011;71040;47.526;18.986;2023-12-29T13:21:40;17.35;;;12.70;;
70313;SDS011;71040;47.526;18.986;2023-12-29T13:26:45;15.35;;;11.80;;
70313;SDS011;71040;47.526;18.986;2023-12-29T13:31:52;15.48;;;12.13;;
70313;SDS011;71040;47.526;18.986;2023-12-29T13:37:02;16.77;;;12.32;;
70313;SDS011;71040;47.526;18.986;2023-12-29T13:42:06;14.55;;;11.25;;
70313;SDS011;71040;47.526;18.986;2023-12-29T13:47:09;18.50;;;12.43;;
70313;SDS011;71040;47.526;18.986;2023-12-29T13:52:11;15.55;;;12.07;;
70313;SDS011;71040;47.526;18.986;2023-12-29T13:57:12;17.37;;;12.53;;
70313;SDS011;71040;47.526;18.986;2023-12-29T14:02:20;16.60;;;11.43;;
70313;SDS011;71040;47.526;18.986;2023-12-29T14:07:26;15.10;;;11.27;;
70313;SDS011;71040;47.526;18.986;2023-12-29T14:12:33;17.88;;;11.73;;
70313;SDS011;71040;47.526;18.986;2023-12-29T14:17:36;14.02;;;11.52;;
70313;SDS011;71040;47.526;18.986;2023-12-29T14:22:38;14.57;;;11.57;;
70313;SDS011;71040;47.526;18.986;2023-12-29T14:27:41;12.63;;;10.00;;
70313;SDS011;71040;47.526;18.986;2023-12-29T14:32:54;13.20;;;9.93;;
70313;SDS011;71040;47.526;18.986;2023-12-29T14:37:54;11.90;;;8.87;;
70313;SDS011;71040;47.526;18.986;2023-12-29T14:42:54;13.60;;;9.17;;
70313;SDS011;71040;47.526;18.986;2023-12-29T14:47:56;12.50;;;8.70;;
70313;SDS011;71040;47.526;18.986;2023-12-29T14:52:58;12.05;;;9.15;;
70313;SDS011;71040;47.526;18.986;2023-12-29T14:58:01;12.17;;;9.33;;
70313;SDS011;71040;47.526;18.986;2023-12-29T15:03:01;12.73;;;9.10;;
70313;SDS011;71040;47.526;18.986;2023-12-29T15:08:01;12.40;;;9.10;;
70313;SDS011;71040;47.526;18.986;2023-12-29T15:13:06;12.48;;;9.40;;
70313;SDS011;71040;47.526;18.986;2023-12-29T15:18:07;13.18;;;9.00;;
70313;SDS011;71040;47.526;18.986;2023-12-29T15:23:07;14.03;;;9.30;;
70313;SDS011;71040;47.526;18.986;2023-12-29T15:28:10;13.73;;;9.80;;
70313;SDS011;71040;47.526;18.986;2023-12-29T15:33:11;10.82;;;8.52;;
70313;SDS011;71040;47.526;18.986;2023-12-29T15:38:11;11.60;;;7.88;;
70313;SDS011;71040;47.526;18.986;2023-12-29T15:43:12;12.87;;;9.60;;
70313;SDS011;71040;47.526;18.986;2023-12-29T15:48:12;10.57;;;7.70;;
70313;SDS011;71040;47.526;18.986;2023-12-29T15:53:12;10.13;;;7.93;;
70313;SDS011;71040;47.526;18.986;2023-12-29T15:58:13;10.43;;;7.80;;
70313;SDS011;71040;47.526;18.986;2023-12-29T16:03:16;11.30;;;7.93;;
70313;SDS011;71040;47.526;18.986;2023-12-29T16:08:21;11.67;;;7.90;;
70313;SDS011;71040;47.526;18.986;2023-12-29T16:13:28;10.33;;;7.17;;
70313;SDS011;71040;47.526;18.986;2023-12-29T16:18:30;9.93;;;7.20;;
70313;SDS011;71040;47.526;18.986;2023-12-29T16:23:31;13.10;;;9.07;;
70313;SDS011;71040;47.526;18.986;2023-12-29T16:28:31;9.83;;;6.97;;
70313;SDS011;71040;47.526;18.986;2023-12-29T16:33:31;9.93;;;6.67;;
70313;SDS011;71040;47.526;18.986;2023-12-29T16:38:33;8.57;;;6.28;;
70313;SDS011;71040;47.526;18.986;2023-12-29T16:43:36;10.05;;;6.85;;
70313;SDS011;71040;47.526;18.986;2023-12-29T16:48:37;9.73;;;7.27;;
70313;SDS011;71040;47.526;18.986;2023-12-29T16:53:37;8.90;;;6.80;;
70313;SDS011;71040;47.526;18.986;2023-12-29T16:58:38;9.63;;;7.07;;
70313;SDS011;71040;47.526;18.986;2023-12-29T17:03:44;9.82;;;7.05;;
70313;SDS011;71040;47.526;18.986;2023-12-29T17:08:46;9.73;;;7.22;;
70313;SDS011;71040;47.526;18.986;2023-12-29T17:13:46;9.32;;;6.82;;
70313;SDS011;71040;47.526;18.986;2023-12-29T17:18:50;10.27;;;7.43;;
70313;SDS011;71040;47.526;18.986;2023-12-29T17:23:50;11.57;;;7.80;;
70313;SDS011;71040;47.526;18.986;2023-12-29T17:28:51;10.43;;;7.38;;
70313;SDS011;71040;47.526;18.986;2023-12-29T17:33:51;11.23;;;8.27;;
70313;SDS011;71040;47.526;18.986;2023-12-29T17:38:53;11.05;;;7.85;;
70313;SDS011;71040;47.526;18.986;2023-12-29T17:43:55;10.10;;;7.97;;
70313;SDS011;71040;47.526;18.986;2023-12-29T17:48:55;11.70;;;9.00;;
70313;SDS011;71040;47.526;18.986;2023-12-29T17:54:01;13.38;;;8.43;;
70313;SDS011;71040;47.526;18.986;2023-12-29T17:59:02;15.77;;;10.27;;
70313;SDS011;71040;47.526;18.986;2023-12-29T18:04:02;14.53;;;9.30;;
70313;SDS011;71040;47.526;18.986;2023-12-29T18:09:03;13.90;;;9.63;;
70313;SDS011;71040;47.526;18.986;2023-12-29T18:14:06;13.82;;;9.07;;
70313;SDS011;71040;47.526;18.986;2023-12-29T18:19:06;14.47;;;9.10;;
70313;SDS011;71040;47.526;18.986;2023-12-29T18:24:09;14.52;;;9.80;;
70313;SDS011;71040;47.526;18.986;2023-12-29T18:29:15;14.52;;;9.98;;
70313;SDS011;71040;47.526;18.986;2023-12-29T18:34:15;16.15;;;10.02;;
70313;SDS011;71040;47.526;18.986;2023-12-29T18:39:18;13.23;;;9.77;;
70313;SDS011;71040;47.526;18.986;2023-12-29T18:44:21;13.52;;;9.43;;
70313;SDS011;71040;47.526;18.986;2023-12-29T18:49:22;12.32;;;8.80;;
70313;SDS011;71040;47.526;18.986;2023-12-29T18:54:22;13.90;;;8.87;;
70313;SDS011;71040;47.526;18.986;2023-12-29T18:59:23;12.23;;;8.75;;
70313;SDS011;71040;47.526;18.986;2023-12-29T19:04:24;12.70;;;8.48;;
70313;SDS011;71040;47.526;18.986;2023-12-29T19:09:25;14.00;;;9.73;;
70313;SDS011;71040;47.526;18.986;2023-12-29T19:14:25;13.47;;;9.87;;
70313;SDS011;71040;47.526;18.986;2023-12-29T19:19:25;12.30;;;9.00;;
70313;SDS011;71040;47.526;18.986;2023-12-29T19:24:26;13.20;;;9.77;;
70313;SDS011;71040;47.526;18.986;2023-12-29T19:29:32;14.45;;;10.50;;
70313;SDS011;71040;47.526;18.986;2023-12-29T19:34:32;14.00;;;10.20;;
70313;SDS011;71040;47.526;18.986;2023-12-29T19:39:33;16.37;;;10.57;;
70313;SDS011;71040;47.526;18.986;2023-12-29T19:44:35;13.53;;;9.90;;
70313;SDS011;71040;47.526;18.986;2023-12-29T19:49:36;14.55;;;9.52;;
70313;SDS011;71040;47.526;18.986;2023-12-29T19:54:40;15.93;;;10.88;;
70313;SDS011;71040;47.526;18.986;2023-12-29T19:59:42;15.43;;;11.10;;
70313;SDS011;71040;47.526;18.986;2023-12-29T20:04:45;15.43;;;10.52;;
70313;SDS011;71040;47.526;18.986;2023-12-29T20:09:46;15.67;;;10.10;;
70313;SDS011;71040;47.526;18.986;2023-12-29T20:14:46;12.25;;;8.68;;
70313;SDS011;71040;47.526;18.986;2023-12-29T20:19:47;13.43;;;8.60;;
70313;SDS011;71040;47.526;18.986;2023-12-29T20:24:47;11.00;;;8.00;;
70313;SDS011;71040;47.526;18.986;2023-12-29T20:29:50;10.63;;;8.00;;
70313;SDS011;71040;47.526;18.986;2023-12-29T20:34:50;12.65;;;8.35;;
70313;SDS011;71040;47.526;18.986;2023-12-29T20:39:51;12.20;;;8.07;;
70313;SDS011;71040;47.526;18.986;2023-12-29T20:44:54;10.88;;;7.18;;
70313;SDS011;71040;47.526;18.986;2023-12-29T20:49:59;11.60;;;7.35;;
70313;SDS011;71040;47.526;18.986;2023-12-29T20:54:59;10.47;;;7.20;;
70313;SDS011;71040;47.526;18.986;2023-12-29T21:00:05;10.45;;;7.13;;
70313;SDS011;71040;47.526;18.986;2023-12-29T21:05:10;10.02;;;6.90;;
70313;SDS011;71040;47.526;18.986;2023-12-29T21:10:12;8.20;;;6.68;;
70313;SDS011;71040;47.526;18.986;2023-12-29T21:15:12;9.07;;;6.30;;
70313;SDS011;71040;47.526;18.986;2023-12-29T21:20:13;9.27;;;6.60;;
70313;SDS011;71040;47.526;18.986;2023-12-29T21:25:18;8.48;;;6.10;;
70313;SDS011;71040;47.526;18.986;2023-12-29T21:30:19;9.45;;;5.85;;
70313;SDS011;71040;47.526;18.986;2023-12-29T21:35:20;9.52;;;6.10;;
70313;SDS011;71040;47.526;18.986;2023-12-29T21:40:22;9.57;;;6.03;;
70313;SDS011;71040;47.526;18.986;2023-12-29T21:45:25;7.87;;;5.63;;
70313;SDS011;71040;47.526;18.986;2023-12-29T21:50:28;7.82;;;5.80;;
70313;SDS011;71040;47.526;18.986;2023-12-29T21:55:28;9.37;;;5.93;;
70313;SDS011;71040;47.526;18.986;2023-12-29T22:00:28;7.23;;;5.37;;
70313;SDS011;71040;47.526;18.986;2023-12-29T22:05:30;7.50;;;5.10;;
70313;SDS011;71040;47.526;18.986;2023-12-29T22:10:30;7.43;;;5.30;;
70313;SDS011;71040;47.526;18.986;2023-12-29T22:15:35;6.60;;;4.70;;
70313;SDS011;71040;47.526;18.986;2023-12-29T22:20:35;7.82;;;5.35;;
70313;SDS011;71040;47.526;18.986;2023-12-29T22:25:36;7.40;;;5.87;;
70313;SDS011;71040;47.526;18.986;2023-12-29T22:30:38;7.25;;;4.93;;
70313;SDS011;71040;47.526;18.986;2023-12-29T22:35:41;6.63;;;4.68;;
70313;SDS011;71040;47.526;18.986;2023-12-29T22:40:41;8.37;;;5.27;;
70313;SDS011;71040;47.526;18.986;2023-12-29T22:45:45;7.03;;;5.05;;
70313;SDS011;71040;47.526;18.986;2023-12-29T22:50:45;7.88;;;4.93;;
70313;SDS011;71040;47.526;18.986;2023-12-29T22:55:45;7.90;;;5.10;;
70313;SDS011;71040;47.526;18.986;2023-12-29T23:00:46;8.90;;;5.67;;
70313;SDS011;71040;47.526;18.986;2023-12-29T23:05:47;8.18;;;5.32;;
70313;SDS011;71040;47.526;18.986;2023-12-29T23:10:48;8.98;;;6.07;;
70313;SDS011;71040;47.526;18.986;2023-12-29T23:15:48;7.13;;;5.43;;
70313;SDS011;71040;47.526;18.986;2023-12-29T23:20:49;7.53;;;5.45;;
70313;SDS011;71040;47.526;18.986;2023-12-29T23:25:49;8.00;;;5.97;;
70313;SDS011;71040;47.526;18.986;2023-12-29T23:30:50;9.33;;;6.57;;
70313;SDS011;71040;47.526;18.986;2023-12-29T23:35:52;8.82;;;6.00;;
70313;SDS011;71040;47.526;18.986;2023-12-29T23:40:55;8.15;;;6.05;;
70313;SDS011;71040;47.526;18.986;2023-12-29T23:45:59;10.38;;;6.53;;
70313;SDS011;71040;47.526;18.986;2023-12-29T23:51:01;9.88;;;6.82;;
70313;SDS011;71040;47.526;18.986;2023-12-29T23:56:01;8.80;;;6.17;;
